Decoded Metar for KPQL (PASCAGOULA in MS, USA) (IATA:PQL) | Meteo·Mobile Aviation Weather
aviador You're here:

KPQL Decoded Metar

PASCAGOULA in MS, USA
Report Time2019-10-22 12:53:00
UTC Time2019-10-22 13:45:21
Flight Rules vfr VFR
Wind350° at 06 kt
W.Decomp.*RWY 35: 6.0 kt HW 0.1 kt LCW
Visibility9999 m
Phenomena:N/A
Clouds:N/A
Expected CloudBase > 1,200 ft AGL from Temp-Dew spread
CeilingNone
Temp18°C (ISA +3)
Dew Point15°C (83% RH)
AAT17.5°C
QNH1018 hPa
Density Alt436 ft
Elevation20 ft
Report Wrong Elevation
Raw Report
KPQL 221253Z 35006KT 10SM CLR 18/15 A3006 RMK AO2 SLP181
T01830150=

Extra information for KPQL:More info

Metar Taf Metar & Taf Last 4 Metars F.Rules Stats Wind Profile Meteogram Temp Stats Airport Information Weather charts Add Link Nearby VenuesMetar ALERT Operation Metar Decoded Social comments

AIRNAV info for KPQL